createdAt,value
2019-02-20T00:02:55.739Z,7.83
2019-02-20T00:07:57.880Z,7.10
2019-02-20T00:13:01.503Z,7.13
2019-02-20T00:18:04.622Z,6.97
2019-02-20T00:23:08.154Z,7.77
2019-02-20T00:28:10.231Z,7.33
2019-02-20T00:33:13.729Z,6.60
2019-02-20T00:38:15.744Z,7.83
2019-02-20T00:43:18.822Z,7.60
2019-02-20T00:48:41.180Z,8.13
2019-02-20T00:53:48.374Z,7.50
2019-02-20T00:58:50.371Z,7.67
2019-02-20T01:03:52.570Z,7.80
2019-02-20T01:08:54.739Z,7.93
2019-02-20T01:13:56.730Z,9.40
2019-02-20T01:19:02.720Z,8.17
2019-02-20T01:24:04.714Z,8.73
2019-02-20T01:29:06.764Z,8.70
2019-02-20T01:34:08.765Z,9.33
2019-02-20T01:39:11.969Z,9.63
2019-02-20T01:44:14.003Z,8.93
2019-02-20T01:49:16.424Z,9.53
2019-02-20T01:54:18.447Z,10.23
2019-02-20T01:59:20.439Z,10.73
2019-02-20T02:04:22.655Z,9.57
2019-02-20T02:09:24.885Z,9.60
2019-02-20T02:14:28.937Z,9.80
2019-02-20T02:19:31.201Z,11.00
2019-02-20T02:24:33.204Z,9.73
2019-02-20T02:29:35.449Z,10.80
2019-02-20T02:34:37.456Z,10.43
2019-02-20T02:39:40.324Z,10.90
2019-02-20T02:44:42.634Z,10.63
2019-02-20T02:49:44.646Z,11.40
2019-02-20T02:54:49.745Z,10.17
2019-02-20T02:59:51.926Z,10.20
2019-02-20T03:04:55.375Z,10.60
2019-02-20T03:09:57.411Z,10.07
2019-02-20T03:14:59.423Z,10.80
2019-02-20T03:20:01.728Z,10.23
2019-02-20T03:25:03.821Z,10.50
2019-02-20T03:30:06.169Z,11.13
2019-02-20T03:35:09.302Z,11.53
2019-02-20T03:40:13.637Z,11.47
2019-02-20T03:45:20.601Z,10.67
2019-02-20T03:50:22.857Z,11.03
2019-02-20T03:55:24.876Z,12.00
2019-02-20T04:00:27.076Z,12.33
2019-02-20T04:05:31.870Z,12.70
2019-02-20T04:10:33.870Z,11.93
2019-02-20T04:15:35.974Z,12.80
2019-02-20T04:20:38.058Z,13.83
2019-02-20T04:25:40.119Z,12.30
2019-02-20T04:30:42.371Z,12.97
2019-02-20T04:35:44.383Z,11.20
2019-02-20T04:40:46.605Z,11.73
2019-02-20T04:45:48.634Z,12.50
2019-02-20T04:50:54.530Z,12.10
2019-02-20T04:55:56.552Z,11.17
2019-02-20T05:00:58.815Z,10.40
2019-02-20T05:06:00.827Z,12.23
2019-02-20T05:11:02.841Z,10.37
2019-02-20T05:16:04.861Z,10.10
2019-02-20T05:21:07.161Z,10.03
2019-02-20T05:26:09.216Z,9.93
2019-02-20T05:31:11.348Z,9.83
2019-02-20T05:36:13.373Z,10.30
2019-02-20T05:41:15.420Z,10.27
2019-02-20T05:46:17.414Z,10.37
2019-02-20T05:51:20.693Z,10.07
2019-02-20T05:56:22.706Z,10.30
2019-02-20T06:01:24.804Z,11.20
2019-02-20T06:06:26.835Z,10.57
2019-02-20T06:11:28.832Z,9.90
2019-02-20T06:16:31.403Z,9.43
2019-02-20T06:21:34.764Z,9.83
2019-02-20T06:26:36.735Z,10.40
2019-02-20T06:31:38.807Z,9.60
2019-02-20T06:36:40.806Z,9.67
2019-02-20T06:41:42.813Z,10.17
2019-02-20T06:46:44.831Z,9.37
2019-02-20T06:51:49.141Z,10.67
2019-02-20T06:56:51.170Z,9.70
2019-02-20T07:01:54.533Z,10.00
2019-02-20T07:07:21.205Z,10.17
2019-02-20T07:12:52.423Z,10.33
2019-02-20T07:18:23.249Z,11.03
2019-02-20T07:23:54.416Z,10.50
2019-02-20T07:29:46.443Z,9.90
2019-02-20T07:34:48.529Z,10.40
2019-02-20T07:39:50.546Z,10.50
2019-02-20T07:44:55.377Z,9.83
2019-02-20T07:49:57.424Z,10.90
2019-02-20T07:54:59.421Z,9.53
2019-02-20T08:00:01.470Z,9.43
2019-02-20T08:05:03.832Z,11.50
2019-02-20T08:10:08.174Z,11.13
2019-02-20T08:15:10.957Z,10.90
2019-02-20T08:20:13.057Z,10.63
2019-02-20T08:25:22.903Z,10.87
2019-02-20T08:30:21.550Z,10.17
2019-02-20T08:35:23.547Z,9.83
2019-02-20T08:40:26.603Z,10.33
2019-02-20T08:45:28.624Z,10.10
2019-02-20T08:50:30.786Z,9.40
2019-02-20T08:55:32.785Z,9.73
2019-02-20T09:00:35.033Z,10.30
2019-02-20T09:05:37.101Z,11.13
2019-02-20T09:10:39.174Z,10.77
2019-02-20T09:15:43.709Z,11.47
2019-02-20T09:20:47.056Z,11.57
2019-02-20T09:25:49.064Z,11.00
2019-02-20T09:30:51.273Z,11.37
2019-02-20T09:35:54.301Z,11.03
2019-02-20T09:40:56.403Z,11.70
2019-02-20T09:46:01.789Z,12.97
2019-02-20T09:51:07.102Z,11.77
2019-02-20T09:56:09.154Z,12.53
2019-02-20T10:01:12.661Z,12.37
2019-02-20T10:06:15.760Z,11.90
2019-02-20T10:11:18.962Z,11.53
2019-02-20T10:16:21.048Z,10.80
2019-02-20T10:21:25.845Z,10.97
2019-02-20T10:26:28.075Z,11.97
2019-02-20T10:31:30.346Z,11.33
2019-02-20T10:36:32.406Z,10.07
2019-02-20T10:41:38.478Z,9.97
2019-02-20T10:46:40.506Z,10.13
2019-02-20T10:51:42.729Z,10.90
2019-02-20T10:56:44.760Z,9.90
2019-02-20T11:01:46.847Z,10.07
2019-02-20T11:06:49.954Z,8.77
2019-02-20T11:11:52.269Z,9.00
2019-02-20T11:16:54.290Z,9.53
2019-02-20T11:21:57.846Z,8.20
2019-02-20T11:26:59.912Z,8.53
2019-02-20T11:32:02.271Z,9.10
2019-02-20T11:37:04.282Z,8.17
2019-02-20T11:42:06.564Z,9.63
2019-02-20T11:47:13.412Z,8.80
2019-02-20T11:52:15.421Z,9.20
2019-02-20T11:57:17.447Z,9.17
2019-02-20T12:02:21.960Z,9.00
2019-02-20T12:07:24.104Z,8.40
2019-02-20T12:12:26.106Z,9.10
2019-02-20T12:17:28.139Z,8.13
2019-02-20T12:22:30.555Z,8.57
2019-02-20T12:27:34.043Z,8.80
2019-02-20T12:32:36.066Z,8.27
2019-02-20T12:37:40.650Z,9.40
2019-02-20T12:42:42.686Z,8.50
2019-02-20T12:47:47.044Z,7.77
2019-02-20T12:52:49.150Z,8.07
2019-02-20T12:57:51.175Z,7.57
2019-02-20T13:02:53.466Z,7.80
2019-02-20T13:07:55.983Z,7.83
2019-02-20T13:12:58.340Z,7.27
2019-02-20T13:18:00.461Z,8.40
2019-02-20T13:23:02.881Z,9.00
2019-02-20T13:28:04.919Z,8.20
2019-02-20T13:33:07.366Z,8.07
2019-02-20T13:38:09.375Z,8.47
2019-02-20T13:43:11.639Z,7.77
2019-02-20T13:48:13.711Z,8.37
2019-02-20T13:53:15.924Z,7.43
2019-02-20T13:58:17.947Z,8.80
2019-02-20T14:03:23.460Z,8.37
2019-02-20T14:08:25.511Z,7.40
2019-02-20T14:13:27.608Z,7.60
2019-02-20T14:18:29.653Z,7.50
2019-02-20T14:23:35.926Z,7.30
2019-02-20T14:28:38.629Z,6.27
2019-02-20T14:33:40.788Z,6.53
2019-02-20T14:38:42.863Z,6.83
2019-02-20T14:43:45.022Z,7.67
2019-02-20T14:48:47.401Z,7.50
2019-02-20T14:53:49.782Z,7.27
2019-02-20T14:58:54.089Z,6.23
2019-02-20T15:03:56.558Z,6.17
2019-02-20T15:09:01.110Z,6.03
2019-02-20T15:14:03.358Z,6.57
2019-02-20T15:19:05.486Z,6.57
2019-02-20T15:24:07.515Z,6.13
2019-02-20T15:29:09.527Z,7.00
2019-02-20T15:34:11.888Z,6.23
2019-02-20T15:39:13.951Z,6.07
2019-02-20T15:44:16.035Z,6.87
2019-02-20T15:49:21.061Z,7.00
2019-02-20T15:54:23.108Z,6.80
2019-02-20T15:59:25.114Z,6.43
2019-02-20T16:04:27.126Z,7.30
2019-02-20T16:09:29.455Z,7.10
2019-02-20T16:14:31.470Z,6.70
2019-02-20T16:19:36.026Z,7.50
2019-02-20T16:24:38.039Z,7.03
2019-02-20T16:29:42.291Z,7.13
2019-02-20T16:34:47.104Z,7.70
2019-02-20T16:39:49.148Z,7.03
2019-02-20T16:44:51.197Z,7.97
2019-02-20T16:49:53.353Z,7.13
2019-02-20T16:54:57.057Z,6.97
2019-02-20T16:59:59.104Z,7.27
2019-02-20T17:05:01.115Z,7.90
2019-02-20T17:10:03.972Z,8.13
2019-02-20T17:15:07.633Z,8.43
2019-02-20T17:20:11.887Z,7.97
2019-02-20T17:25:16.969Z,7.83
2019-02-20T17:30:24.109Z,8.03
2019-02-20T17:35:26.176Z,9.03
2019-02-20T17:40:28.357Z,8.85
2019-02-20T17:45:30.412Z,7.63
2019-02-20T17:50:35.441Z,8.93
2019-02-20T17:55:37.571Z,9.43
2019-02-20T18:00:41.321Z,9.30
2019-02-20T18:05:45.875Z,9.27
2019-02-20T18:10:47.941Z,9.80
2019-02-20T18:15:51.762Z,9.40
2019-02-20T18:20:59.285Z,10.07
2019-02-20T18:26:01.328Z,9.90
2019-02-20T18:31:03.556Z,10.60
2019-02-20T18:36:05.707Z,11.17
2019-02-20T18:41:08.140Z,11.77
2019-02-20T18:46:10.181Z,11.30
2019-02-20T18:51:12.382Z,10.53
2019-02-20T18:56:22.284Z,11.77
2019-02-20T19:01:24.646Z,11.23
2019-02-20T19:06:26.777Z,11.30
2019-02-20T19:11:43.638Z,11.73
2019-02-20T19:17:33.578Z,12.00
2019-02-20T19:23:18.439Z,11.90
2019-02-20T19:28:44.556Z,12.80
2019-02-20T19:34:13.749Z,13.63
2019-02-20T19:39:27.094Z,13.47
2019-02-20T19:44:59.760Z,13.40
2019-02-20T19:50:34.971Z,14.20
2019-02-20T19:56:07.626Z,15.03
2019-02-20T20:01:39.895Z,14.13
2019-02-20T20:07:19.602Z,13.10
2019-02-20T20:13:20.614Z,12.87
2019-02-20T20:18:56.020Z,13.10
2019-02-20T20:24:52.867Z,12.57
2019-02-20T20:30:32.695Z,11.97
2019-02-20T20:35:47.777Z,11.43
2019-02-20T20:41:45.008Z,11.40
2019-02-20T20:47:43.832Z,11.37
2019-02-20T20:53:00.901Z,10.77
2019-02-20T20:58:27.231Z,11.43
2019-02-20T21:03:33.016Z,11.17
2019-02-20T21:09:11.926Z,10.70
2019-02-20T21:14:49.229Z,10.60
2019-02-20T21:20:13.767Z,10.27
2019-02-20T21:26:03.856Z,10.53
2019-02-20T21:31:43.771Z,10.17
2019-02-20T21:37:23.519Z,9.97
2019-02-20T21:42:50.271Z,11.17
2019-02-20T21:48:13.623Z,12.03
2019-02-20T21:54:08.235Z,13.03
2019-02-20T22:00:00.403Z,12.47
2019-02-20T22:05:29.383Z,12.67
2019-02-20T22:10:58.714Z,13.13
2019-02-20T22:16:10.638Z,13.57
2019-02-20T22:22:04.859Z,14.20
2019-02-20T22:27:48.806Z,13.50
2019-02-20T22:33:11.866Z,14.23
2019-02-20T22:38:43.679Z,13.70
2019-02-20T22:44:27.500Z,13.63
2019-02-20T22:50:11.335Z,14.90
2019-02-20T22:55:52.620Z,16.57
2019-02-20T23:01:40.922Z,16.77
2019-02-20T23:07:04.752Z,16.53
2019-02-20T23:12:35.268Z,18.27
2019-02-20T23:17:40.255Z,19.27
2019-02-20T23:22:42.272Z,18.60
2019-02-20T23:27:44.443Z,19.10
2019-02-20T23:32:46.498Z,20.23
2019-02-20T23:37:49.767Z,19.43
2019-02-20T23:42:52.022Z,18.77
2019-02-20T23:47:56.968Z,19.93
2019-02-20T23:52:59.088Z,19.23
2019-02-20T23:58:01.211Z,19.90
